sensor_id;sensor_type;location;lat;lon;timestamp;P1;durP1;ratioP1;P2;durP2;ratioP2
40449;SDS011;41787;53.570;10.032;2022-09-12T00:02:19;6.38;;;3.45;;
40449;SDS011;41787;53.570;10.032;2022-09-12T00:04:45;6.63;;;3.70;;
40449;SDS011;41787;53.570;10.032;2022-09-12T00:07:11;5.70;;;3.70;;
40449;SDS011;41787;53.570;10.032;2022-09-12T00:09:37;9.20;;;3.85;;
40449;SDS011;41787;53.570;10.032;2022-09-12T00:12:04;6.50;;;3.78;;
40449;SDS011;41787;53.570;10.032;2022-09-12T00:14:30;4.70;;;3.40;;
40449;SDS011;41787;53.570;10.032;2022-09-12T00:16:56;6.90;;;4.03;;
40449;SDS011;41787;53.570;10.032;2022-09-12T00:19:23;4.50;;;3.40;;
40449;SDS011;41787;53.570;10.032;2022-09-12T00:21:49;6.00;;;3.67;;
40449;SDS011;41787;53.570;10.032;2022-09-12T00:24:15;5.85;;;3.83;;
40449;SDS011;41787;53.570;10.032;2022-09-12T00:26:41;6.47;;;3.60;;
40449;SDS011;41787;53.570;10.032;2022-09-12T00:29:07;6.20;;;4.03;;
40449;SDS011;41787;53.570;10.032;2022-09-12T00:31:34;4.63;;;3.47;;
40449;SDS011;41787;53.570;10.032;2022-09-12T00:34:00;4.32;;;3.33;;
40449;SDS011;41787;53.570;10.032;2022-09-12T00:36:27;5.57;;;4.18;;
40449;SDS011;41787;53.570;10.032;2022-09-12T00:38:54;5.60;;;3.95;;
40449;SDS011;41787;53.570;10.032;2022-09-12T00:41:21;7.38;;;4.55;;
40449;SDS011;41787;53.570;10.032;2022-09-12T00:43:48;6.88;;;4.43;;
40449;SDS011;41787;53.570;10.032;2022-09-12T00:51:40;7.15;;;4.22;;
40449;SDS011;41787;53.570;10.032;2022-09-12T00:54:09;9.63;;;3.97;;
40449;SDS011;41787;53.570;10.032;2022-09-12T00:56:36;7.18;;;4.53;;
40449;SDS011;41787;53.570;10.032;2022-09-12T00:59:04;7.05;;;4.22;;
40449;SDS011;41787;53.570;10.032;2022-09-12T01:01:32;6.57;;;3.80;;
40449;SDS011;41787;53.570;10.032;2022-09-12T01:03:58;8.80;;;4.40;;
40449;SDS011;41787;53.570;10.032;2022-09-12T01:06:26;6.82;;;3.90;;
40449;SDS011;41787;53.570;10.032;2022-09-12T01:08:53;4.97;;;3.47;;
40449;SDS011;41787;53.570;10.032;2022-09-12T01:11:20;6.80;;;3.83;;
40449;SDS011;41787;53.570;10.032;2022-09-12T01:13:46;6.07;;;3.65;;
40449;SDS011;41787;53.570;10.032;2022-09-12T01:16:12;4.90;;;3.35;;
40449;SDS011;41787;53.570;10.032;2022-09-12T01:18:57;6.00;;;4.07;;
40449;SDS011;41787;53.570;10.032;2022-09-12T01:26:54;4.85;;;4.00;;
40449;SDS011;41787;53.570;10.032;2022-09-12T01:31:55;7.50;;;4.32;;
40449;SDS011;41787;53.570;10.032;2022-09-12T01:34:27;5.40;;;3.80;;
40449;SDS011;41787;53.570;10.032;2022-09-12T01:36:59;5.68;;;4.13;;
40449;SDS011;41787;53.570;10.032;2022-09-12T01:44:46;5.57;;;3.50;;
40449;SDS011;41787;53.570;10.032;2022-09-12T01:47:21;5.20;;;3.72;;
40449;SDS011;41787;53.570;10.032;2022-09-12T01:49:59;6.00;;;3.80;;
40449;SDS011;41787;53.570;10.032;2022-09-12T01:52:27;5.22;;;4.18;;
40449;SDS011;41787;53.570;10.032;2022-09-12T01:55:09;6.53;;;4.07;;
40449;SDS011;41787;53.570;10.032;2022-09-12T01:57:38;5.28;;;3.30;;
40449;SDS011;41787;53.570;10.032;2022-09-12T02:00:08;6.20;;;3.83;;
40449;SDS011;41787;53.570;10.032;2022-09-12T02:02:36;5.70;;;3.95;;
40449;SDS011;41787;53.570;10.032;2022-09-12T02:05:10;5.65;;;3.92;;
40449;SDS011;41787;53.570;10.032;2022-09-12T02:10:25;4.95;;;3.95;;
40449;SDS011;41787;53.570;10.032;2022-09-12T02:12:58;5.13;;;3.65;;
40449;SDS011;41787;53.570;10.032;2022-09-12T02:15:29;6.10;;;4.00;;
40449;SDS011;41787;53.570;10.032;2022-09-12T02:17:57;4.97;;;4.20;;
40449;SDS011;41787;53.570;10.032;2022-09-12T02:20:26;9.77;;;4.28;;
40449;SDS011;41787;53.570;10.032;2022-09-12T02:22:53;5.43;;;3.78;;
40449;SDS011;41787;53.570;10.032;2022-09-12T02:25:20;5.22;;;4.20;;
40449;SDS011;41787;53.570;10.032;2022-09-12T02:27:48;4.43;;;3.70;;
40449;SDS011;41787;53.570;10.032;2022-09-12T02:30:15;6.13;;;4.38;;
40449;SDS011;41787;53.570;10.032;2022-09-12T02:35:18;4.80;;;3.83;;
40449;SDS011;41787;53.570;10.032;2022-09-12T02:38:06;6.25;;;4.10;;
40449;SDS011;41787;53.570;10.032;2022-09-12T02:40:33;5.07;;;4.20;;
40449;SDS011;41787;53.570;10.032;2022-09-12T02:43:00;7.97;;;4.50;;
40449;SDS011;41787;53.570;10.032;2022-09-12T02:45:26;4.85;;;4.18;;
40449;SDS011;41787;53.570;10.032;2022-09-12T02:50:25;6.05;;;4.40;;
40449;SDS011;41787;53.570;10.032;2022-09-12T02:52:52;6.60;;;4.80;;
40449;SDS011;41787;53.570;10.032;2022-09-12T02:55:19;6.32;;;4.78;;
40449;SDS011;41787;53.570;10.032;2022-09-12T02:57:45;5.78;;;4.20;;
40449;SDS011;41787;53.570;10.032;2022-09-12T03:00:11;9.27;;;4.57;;
40449;SDS011;41787;53.570;10.032;2022-09-12T03:05:30;7.88;;;4.70;;
40449;SDS011;41787;53.570;10.032;2022-09-12T03:10:45;6.47;;;5.03;;
40449;SDS011;41787;53.570;10.032;2022-09-12T03:18:28;7.07;;;4.45;;
40449;SDS011;41787;53.570;10.032;2022-09-12T03:21:00;6.20;;;4.72;;
40449;SDS011;41787;53.570;10.032;2022-09-12T03:26:05;5.72;;;4.55;;
40449;SDS011;41787;53.570;10.032;2022-09-12T03:28:34;5.53;;;4.38;;
40449;SDS011;41787;53.570;10.032;2022-09-12T03:31:00;6.75;;;4.82;;
40449;SDS011;41787;53.570;10.032;2022-09-12T03:33:36;7.82;;;5.32;;
40449;SDS011;41787;53.570;10.032;2022-09-12T03:36:02;7.40;;;5.28;;
40449;SDS011;41787;53.570;10.032;2022-09-12T03:38:28;8.70;;;5.28;;
40449;SDS011;41787;53.570;10.032;2022-09-12T03:40:54;6.78;;;5.40;;
40449;SDS011;41787;53.570;10.032;2022-09-12T03:43:19;6.72;;;5.13;;
40449;SDS011;41787;53.570;10.032;2022-09-12T03:45:46;7.13;;;5.65;;
40449;SDS011;41787;53.570;10.032;2022-09-12T03:48:15;12.10;;;5.72;;
40449;SDS011;41787;53.570;10.032;2022-09-12T03:50:41;8.40;;;5.68;;
40449;SDS011;41787;53.570;10.032;2022-09-12T03:53:06;8.27;;;5.88;;
40449;SDS011;41787;53.570;10.032;2022-09-12T03:55:32;8.00;;;5.53;;
40449;SDS011;41787;53.570;10.032;2022-09-12T03:57:58;8.93;;;5.65;;
40449;SDS011;41787;53.570;10.032;2022-09-12T04:00:24;7.55;;;5.28;;
40449;SDS011;41787;53.570;10.032;2022-09-12T04:02:54;6.88;;;5.30;;
40449;SDS011;41787;53.570;10.032;2022-09-12T04:05:21;6.28;;;5.53;;
40449;SDS011;41787;53.570;10.032;2022-09-12T04:07:47;8.88;;;6.05;;
40449;SDS011;41787;53.570;10.032;2022-09-12T04:10:13;7.80;;;5.68;;
40449;SDS011;41787;53.570;10.032;2022-09-12T04:12:39;7.80;;;5.32;;
40449;SDS011;41787;53.570;10.032;2022-09-12T04:15:05;11.07;;;6.88;;
40449;SDS011;41787;53.570;10.032;2022-09-12T04:17:32;10.18;;;5.60;;
40449;SDS011;41787;53.570;10.032;2022-09-12T04:19:58;7.10;;;5.75;;
40449;SDS011;41787;53.570;10.032;2022-09-12T04:22:24;12.88;;;6.40;;
40449;SDS011;41787;53.570;10.032;2022-09-12T04:24:50;7.38;;;5.70;;
40449;SDS011;41787;53.570;10.032;2022-09-12T04:27:16;9.70;;;5.38;;
40449;SDS011;41787;53.570;10.032;2022-09-12T04:29:42;7.10;;;5.85;;
40449;SDS011;41787;53.570;10.032;2022-09-12T04:32:08;6.95;;;5.60;;
40449;SDS011;41787;53.570;10.032;2022-09-12T04:34:34;8.30;;;6.03;;
40449;SDS011;41787;53.570;10.032;2022-09-12T04:37:00;8.48;;;6.13;;
40449;SDS011;41787;53.570;10.032;2022-09-12T04:39:26;10.00;;;7.00;;
40449;SDS011;41787;53.570;10.032;2022-09-12T04:41:51;13.93;;;5.80;;
40449;SDS011;41787;53.570;10.032;2022-09-12T04:44:18;11.02;;;6.72;;
40449;SDS011;41787;53.570;10.032;2022-09-12T04:46:44;11.82;;;6.68;;
40449;SDS011;41787;53.570;10.032;2022-09-12T04:49:11;10.30;;;6.45;;
40449;SDS011;41787;53.570;10.032;2022-09-12T04:51:38;15.85;;;6.85;;
40449;SDS011;41787;53.570;10.032;2022-09-12T04:54:06;10.57;;;6.90;;
40449;SDS011;41787;53.570;10.032;2022-09-12T04:56:32;8.35;;;6.53;;
40449;SDS011;41787;53.570;10.032;2022-09-12T04:58:59;12.13;;;6.18;;
40449;SDS011;41787;53.570;10.032;2022-09-12T05:01:26;9.60;;;6.68;;
40449;SDS011;41787;53.570;10.032;2022-09-12T05:03:52;11.20;;;6.55;;
40449;SDS011;41787;53.570;10.032;2022-09-12T05:06:20;13.80;;;7.57;;
40449;SDS011;41787;53.570;10.032;2022-09-12T05:08:46;15.55;;;6.57;;
40449;SDS011;41787;53.570;10.032;2022-09-12T05:11:13;9.20;;;6.65;;
40449;SDS011;41787;53.570;10.032;2022-09-12T05:13:39;12.70;;;6.72;;
40449;SDS011;41787;53.570;10.032;2022-09-12T05:16:05;11.57;;;6.40;;
40449;SDS011;41787;53.570;10.032;2022-09-12T05:18:32;8.25;;;6.03;;
40449;SDS011;41787;53.570;10.032;2022-09-12T05:20:59;14.30;;;7.25;;
40449;SDS011;41787;53.570;10.032;2022-09-12T05:23:25;9.57;;;6.63;;
40449;SDS011;41787;53.570;10.032;2022-09-12T05:25:51;11.88;;;6.50;;
40449;SDS011;41787;53.570;10.032;2022-09-12T05:28:18;13.15;;;7.05;;
40449;SDS011;41787;53.570;10.032;2022-09-12T05:30:45;8.65;;;6.78;;
40449;SDS011;41787;53.570;10.032;2022-09-12T05:33:11;8.45;;;7.13;;
40449;SDS011;41787;53.570;10.032;2022-09-12T05:35:37;14.13;;;7.35;;
40449;SDS011;41787;53.570;10.032;2022-09-12T05:38:03;12.43;;;7.88;;
40449;SDS011;41787;53.570;10.032;2022-09-12T05:40:30;15.20;;;8.73;;
40449;SDS011;41787;53.570;10.032;2022-09-12T05:42:56;16.27;;;9.07;;
40449;SDS011;41787;53.570;10.032;2022-09-12T05:45:22;17.17;;;10.02;;
40449;SDS011;41787;53.570;10.032;2022-09-12T05:47:48;19.60;;;10.73;;
40449;SDS011;41787;53.570;10.032;2022-09-12T05:50:14;20.27;;;11.38;;
40449;SDS011;41787;53.570;10.032;2022-09-12T05:52:40;28.85;;;12.70;;
40449;SDS011;41787;53.570;10.032;2022-09-12T05:55:06;39.05;;;12.25;;
40449;SDS011;41787;53.570;10.032;2022-09-12T05:57:32;27.25;;;12.45;;
40449;SDS011;41787;53.570;10.032;2022-09-12T05:59:58;22.75;;;13.15;;
40449;SDS011;41787;53.570;10.032;2022-09-12T06:02:24;22.15;;;13.02;;
40449;SDS011;41787;53.570;10.032;2022-09-12T06:04:50;21.27;;;13.35;;
40449;SDS011;41787;53.570;10.032;2022-09-12T06:07:16;19.55;;;12.57;;
40449;SDS011;41787;53.570;10.032;2022-09-12T06:09:42;19.80;;;13.15;;
40449;SDS011;41787;53.570;10.032;2022-09-12T06:12:08;20.75;;;13.50;;
40449;SDS011;41787;53.570;10.032;2022-09-12T06:14:34;19.65;;;13.60;;
40449;SDS011;41787;53.570;10.032;2022-09-12T06:17:00;18.55;;;13.05;;
40449;SDS011;41787;53.570;10.032;2022-09-12T06:19:26;20.88;;;13.15;;
40449;SDS011;41787;53.570;10.032;2022-09-12T06:21:52;21.08;;;13.55;;
40449;SDS011;41787;53.570;10.032;2022-09-12T06:24:18;20.63;;;13.68;;
40449;SDS011;41787;53.570;10.032;2022-09-12T06:26:45;20.05;;;13.18;;
40449;SDS011;41787;53.570;10.032;2022-09-12T06:29:11;18.63;;;12.93;;
40449;SDS011;41787;53.570;10.032;2022-09-12T06:31:38;19.38;;;12.52;;
40449;SDS011;41787;53.570;10.032;2022-09-12T06:34:05;21.30;;;13.10;;
40449;SDS011;41787;53.570;10.032;2022-09-12T06:36:33;21.48;;;12.55;;
40449;SDS011;41787;53.570;10.032;2022-09-12T06:39:01;16.27;;;12.05;;
40449;SDS011;41787;53.570;10.032;2022-09-12T06:41:27;17.65;;;11.75;;
40449;SDS011;41787;53.570;10.032;2022-09-12T06:43:55;18.80;;;11.93;;
40449;SDS011;41787;53.570;10.032;2022-09-12T06:46:21;18.30;;;11.65;;
40449;SDS011;41787;53.570;10.032;2022-09-12T06:48:47;16.17;;;12.52;;
40449;SDS011;41787;53.570;10.032;2022-09-12T06:51:14;17.50;;;11.45;;
40449;SDS011;41787;53.570;10.032;2022-09-12T06:53:41;18.55;;;11.15;;
40449;SDS011;41787;53.570;10.032;2022-09-12T06:56:09;16.23;;;10.15;;
40449;SDS011;41787;53.570;10.032;2022-09-12T06:58:35;13.40;;;10.18;;
40449;SDS011;41787;53.570;10.032;2022-09-12T07:03:27;14.45;;;10.00;;
40449;SDS011;41787;53.570;10.032;2022-09-12T07:05:54;12.13;;;10.57;;
40449;SDS011;41787;53.570;10.032;2022-09-12T07:08:19;15.52;;;10.70;;
40449;SDS011;41787;53.570;10.032;2022-09-12T07:10:46;11.23;;;9.75;;
40449;SDS011;41787;53.570;10.032;2022-09-12T07:13:12;14.45;;;10.18;;
40449;SDS011;41787;53.570;10.032;2022-09-12T07:15:38;13.45;;;10.02;;
40449;SDS011;41787;53.570;10.032;2022-09-12T07:18:04;12.40;;;8.82;;
40449;SDS011;41787;53.570;10.032;2022-09-12T07:20:30;11.00;;;8.68;;
40449;SDS011;41787;53.570;10.032;2022-09-12T07:23:01;10.13;;;7.80;;
40449;SDS011;41787;53.570;10.032;2022-09-12T07:25:27;10.55;;;7.25;;
40449;SDS011;41787;53.570;10.032;2022-09-12T07:27:53;9.60;;;7.40;;
40449;SDS011;41787;53.570;10.032;2022-09-12T07:30:19;7.88;;;6.75;;
40449;SDS011;41787;53.570;10.032;2022-09-12T07:32:46;8.98;;;6.85;;
40449;SDS011;41787;53.570;10.032;2022-09-12T07:35:12;8.90;;;6.45;;
40449;SDS011;41787;53.570;10.032;2022-09-12T07:37:38;8.75;;;6.97;;
40449;SDS011;41787;53.570;10.032;2022-09-12T07:40:04;8.88;;;7.00;;
40449;SDS011;41787;53.570;10.032;2022-09-12T07:42:30;7.45;;;6.47;;
40449;SDS011;41787;53.570;10.032;2022-09-12T07:44:56;10.13;;;6.82;;
40449;SDS011;41787;53.570;10.032;2022-09-12T07:47:22;10.30;;;6.30;;
40449;SDS011;41787;53.570;10.032;2022-09-12T07:49:47;9.95;;;6.28;;
40449;SDS011;41787;53.570;10.032;2022-09-12T07:52:13;7.85;;;6.05;;
40449;SDS011;41787;53.570;10.032;2022-09-12T07:54:39;7.10;;;5.72;;
40449;SDS011;41787;53.570;10.032;2022-09-12T07:57:05;9.88;;;6.80;;
40449;SDS011;41787;53.570;10.032;2022-09-12T07:59:31;8.25;;;5.95;;
40449;SDS011;41787;53.570;10.032;2022-09-12T08:01:57;10.55;;;5.47;;
40449;SDS011;41787;53.570;10.032;2022-09-12T08:04:23;8.38;;;5.20;;
40449;SDS011;41787;53.570;10.032;2022-09-12T08:06:49;7.15;;;5.78;;
40449;SDS011;41787;53.570;10.032;2022-09-12T08:09:15;8.18;;;5.10;;
40449;SDS011;41787;53.570;10.032;2022-09-12T08:11:41;7.82;;;5.55;;
40449;SDS011;41787;53.570;10.032;2022-09-12T08:14:08;7.63;;;5.43;;
40449;SDS011;41787;53.570;10.032;2022-09-12T08:16:34;8.73;;;5.03;;
40449;SDS011;41787;53.570;10.032;2022-09-12T08:19:00;7.53;;;5.43;;
40449;SDS011;41787;53.570;10.032;2022-09-12T08:21:27;9.60;;;5.40;;
40449;SDS011;41787;53.570;10.032;2022-09-12T08:23:55;9.68;;;5.43;;
40449;SDS011;41787;53.570;10.032;2022-09-12T08:26:22;7.88;;;5.70;;
40449;SDS011;41787;53.570;10.032;2022-09-12T08:28:48;6.15;;;4.53;;
40449;SDS011;41787;53.570;10.032;2022-09-12T08:31:16;7.00;;;5.05;;
40449;SDS011;41787;53.570;10.032;2022-09-12T08:33:42;5.80;;;4.93;;
40449;SDS011;41787;53.570;10.032;2022-09-12T08:36:10;5.05;;;4.00;;
40449;SDS011;41787;53.570;10.032;2022-09-12T08:38:37;6.05;;;4.95;;
40449;SDS011;41787;53.570;10.032;2022-09-12T08:41:21;8.05;;;4.88;;
40449;SDS011;41787;53.570;10.032;2022-09-12T08:49:24;14.07;;;4.10;;
40449;SDS011;41787;53.570;10.032;2022-09-12T08:51:52;5.50;;;4.38;;
40449;SDS011;41787;53.570;10.032;2022-09-12T08:54:20;4.00;;;3.20;;
40449;SDS011;41787;53.570;10.032;2022-09-12T08:56:48;5.78;;;3.33;;
40449;SDS011;41787;53.570;10.032;2022-09-12T08:59:14;4.47;;;2.85;;
40449;SDS011;41787;53.570;10.032;2022-09-12T09:01:41;3.47;;;2.42;;
40449;SDS011;41787;53.570;10.032;2022-09-12T09:06:52;2.95;;;2.45;;
40449;SDS011;41787;53.570;10.032;2022-09-12T09:17:36;3.88;;;2.80;;
40449;SDS011;41787;53.570;10.032;2022-09-12T09:22:37;5.35;;;2.20;;
40449;SDS011;41787;53.570;10.032;2022-09-12T09:25:21;3.65;;;2.67;;
40449;SDS011;41787;53.570;10.032;2022-09-12T09:30:18;3.92;;;2.40;;
40449;SDS011;41787;53.570;10.032;2022-09-12T09:32:47;4.65;;;2.75;;
40449;SDS011;41787;53.570;10.032;2022-09-12T09:40:39;3.85;;;2.33;;
40449;SDS011;41787;53.570;10.032;2022-09-12T09:45:35;4.60;;;2.22;;
40449;SDS011;41787;53.570;10.032;2022-09-12T09:48:18;4.10;;;2.20;;
40449;SDS011;41787;53.570;10.032;2022-09-12T09:50:46;4.13;;;2.13;;
40449;SDS011;41787;53.570;10.032;2022-09-12T09:53:28;2.47;;;2.08;;
40449;SDS011;41787;53.570;10.032;2022-09-12T09:55:56;3.30;;;2.13;;
40449;SDS011;41787;53.570;10.032;2022-09-12T09:58:29;2.72;;;2.17;;
40449;SDS011;41787;53.570;10.032;2022-09-12T10:00:59;9.85;;;1.95;;
40449;SDS011;41787;53.570;10.032;2022-09-12T10:06:07;1.90;;;1.60;;
40449;SDS011;41787;53.570;10.032;2022-09-12T10:08:43;1.95;;;1.70;;
40449;SDS011;41787;53.570;10.032;2022-09-12T10:16:18;6.55;;;2.00;;
40449;SDS011;41787;53.570;10.032;2022-09-12T10:18:46;4.75;;;1.90;;
40449;SDS011;41787;53.570;10.032;2022-09-12T10:23:41;2.35;;;1.63;;
40449;SDS011;41787;53.570;10.032;2022-09-12T10:26:08;4.72;;;1.70;;
40449;SDS011;41787;53.570;10.032;2022-09-12T10:28:36;3.83;;;1.38;;
40449;SDS011;41787;53.570;10.032;2022-09-12T10:31:03;3.00;;;1.35;;
40449;SDS011;41787;53.570;10.032;2022-09-12T10:33:30;3.53;;;1.90;;
40449;SDS011;41787;53.570;10.032;2022-09-12T10:35:59;3.30;;;1.50;;
40449;SDS011;41787;53.570;10.032;2022-09-12T10:38:26;2.50;;;1.60;;
40449;SDS011;41787;53.570;10.032;2022-09-12T10:41:03;5.55;;;1.50;;
40449;SDS011;41787;53.570;10.032;2022-09-12T10:48:43;2.05;;;1.80;;
40449;SDS011;41787;53.570;10.032;2022-09-12T10:51:27;2.53;;;1.50;;
40449;SDS011;41787;53.570;10.032;2022-09-12T10:53:54;2.28;;;1.60;;
40449;SDS011;41787;53.570;10.032;2022-09-12T10:56:21;2.35;;;1.42;;
40449;SDS011;41787;53.570;10.032;2022-09-12T10:58:52;2.83;;;1.73;;
40449;SDS011;41787;53.570;10.032;2022-09-12T11:01:32;3.42;;;1.85;;
40449;SDS011;41787;53.570;10.032;2022-09-12T11:06:44;5.95;;;1.90;;
40449;SDS011;41787;53.570;10.032;2022-09-12T11:09:18;5.57;;;1.50;;
40449;SDS011;41787;53.570;10.032;2022-09-12T11:30:19;1.50;;;1.27;;
40449;SDS011;41787;53.570;10.032;2022-09-12T11:33:09;1.80;;;1.10;;
40449;SDS011;41787;53.570;10.032;2022-09-12T11:35:32;1.42;;;1.20;;
40449;SDS011;41787;53.570;10.032;2022-09-12T11:38:15;1.25;;;0.93;;
40449;SDS011;41787;53.570;10.032;2022-09-12T11:40:59;3.65;;;0.93;;
40449;SDS011;41787;53.570;10.032;2022-09-12T11:46:09;2.05;;;0.98;;
40449;SDS011;41787;53.570;10.032;2022-09-12T11:48:40;1.30;;;0.82;;
40449;SDS011;41787;53.570;10.032;2022-09-12T11:51:14;1.98;;;0.75;;
40449;SDS011;41787;53.570;10.032;2022-09-12T11:53:42;2.83;;;1.00;;
40449;SDS011;41787;53.570;10.032;2022-09-12T11:56:13;3.67;;;1.00;;
40449;SDS011;41787;53.570;10.032;2022-09-12T11:58:41;1.75;;;0.80;;
40449;SDS011;41787;53.570;10.032;2022-09-12T12:01:19;2.13;;;0.95;;
40449;SDS011;41787;53.570;10.032;2022-09-12T12:03:46;1.58;;;0.88;;
40449;SDS011;41787;53.570;10.032;2022-09-12T12:06:16;1.25;;;0.85;;
40449;SDS011;41787;53.570;10.032;2022-09-12T12:08:43;2.95;;;1.33;;
40449;SDS011;41787;53.570;10.032;2022-09-12T12:11:11;1.83;;;0.88;;
40449;SDS011;41787;53.570;10.032;2022-09-12T12:13:47;1.65;;;1.02;;
40449;SDS011;41787;53.570;10.032;2022-09-12T12:16:29;4.88;;;0.85;;
40449;SDS011;41787;53.570;10.032;2022-09-12T12:18:56;2.25;;;1.10;;
40449;SDS011;41787;53.570;10.032;2022-09-12T12:21:34;2.03;;;0.75;;
40449;SDS011;41787;53.570;10.032;2022-09-12T12:29:35;3.75;;;0.90;;
40449;SDS011;41787;53.570;10.032;2022-09-12T12:34:38;3.65;;;1.35;;
40449;SDS011;41787;53.570;10.032;2022-09-12T12:45:00;1.00;;;0.90;;
40449;SDS011;41787;53.570;10.032;2022-09-12T12:55:13;1.40;;;0.90;;
40449;SDS011;41787;53.570;10.032;2022-09-12T12:57:44;1.63;;;0.85;;
40449;SDS011;41787;53.570;10.032;2022-09-12T13:02:59;1.85;;;0.90;;
40449;SDS011;41787;53.570;10.032;2022-09-12T13:05:26;3.67;;;1.15;;
40449;SDS011;41787;53.570;10.032;2022-09-12T13:07:57;4.00;;;0.90;;
40449;SDS011;41787;53.570;10.032;2022-09-12T13:10:26;5.00;;;0.85;;
40449;SDS011;41787;53.570;10.032;2022-09-12T13:12:53;2.85;;;1.00;;
40449;SDS011;41787;53.570;10.032;2022-09-12T13:18:03;4.07;;;1.08;;
40449;SDS011;41787;53.570;10.032;2022-09-12T13:20:35;2.28;;;0.82;;
40449;SDS011;41787;53.570;10.032;2022-09-12T13:23:02;1.90;;;1.00;;
40449;SDS011;41787;53.570;10.032;2022-09-12T13:25:30;2.88;;;1.10;;
40449;SDS011;41787;53.570;10.032;2022-09-12T13:30:38;2.33;;;0.90;;
40449;SDS011;41787;53.570;10.032;2022-09-12T13:33:10;1.90;;;0.90;;
40449;SDS011;41787;53.570;10.032;2022-09-12T13:38:56;3.63;;;1.20;;
40449;SDS011;41787;53.570;10.032;2022-09-12T13:43:44;3.30;;;0.80;;
40449;SDS011;41787;53.570;10.032;2022-09-12T13:46:12;2.80;;;1.05;;
40449;SDS011;41787;53.570;10.032;2022-09-12T13:48:40;3.85;;;0.98;;
40449;SDS011;41787;53.570;10.032;2022-09-12T13:51:06;2.63;;;0.80;;
40449;SDS011;41787;53.570;10.032;2022-09-12T13:53:42;10.32;;;1.33;;
40449;SDS011;41787;53.570;10.032;2022-09-12T13:56:14;2.13;;;1.15;;
40449;SDS011;41787;53.570;10.032;2022-09-12T13:58:49;1.25;;;0.90;;
40449;SDS011;41787;53.570;10.032;2022-09-12T14:01:15;3.65;;;0.82;;
40449;SDS011;41787;53.570;10.032;2022-09-12T14:03:51;1.35;;;0.80;;
40449;SDS011;41787;53.570;10.032;2022-09-12T14:06:47;1.88;;;1.02;;
40449;SDS011;41787;53.570;10.032;2022-09-12T14:09:33;2.50;;;0.73;;
40449;SDS011;41787;53.570;10.032;2022-09-12T14:12:02;4.95;;;1.05;;
40449;SDS011;41787;53.570;10.032;2022-09-12T14:14:33;4.15;;;0.90;;
40449;SDS011;41787;53.570;10.032;2022-09-12T14:17:00;2.95;;;1.35;;
40449;SDS011;41787;53.570;10.032;2022-09-12T14:19:39;3.70;;;1.27;;
40449;SDS011;41787;53.570;10.032;2022-09-12T14:22:07;5.05;;;1.67;;
40449;SDS011;41787;53.570;10.032;2022-09-12T14:24:34;2.30;;;1.23;;
40449;SDS011;41787;53.570;10.032;2022-09-12T14:27:01;2.70;;;1.30;;
40449;SDS011;41787;53.570;10.032;2022-09-12T14:29:27;5.22;;;1.50;;
40449;SDS011;41787;53.570;10.032;2022-09-12T14:31:58;4.28;;;1.35;;
40449;SDS011;41787;53.570;10.032;2022-09-12T14:34:25;3.25;;;1.70;;
40449;SDS011;41787;53.570;10.032;2022-09-12T14:36:52;4.30;;;1.52;;
40449;SDS011;41787;53.570;10.032;2022-09-12T14:39:25;2.92;;;1.65;;
40449;SDS011;41787;53.570;10.032;2022-09-12T14:42:00;2.08;;;1.60;;
40449;SDS011;41787;53.570;10.032;2022-09-12T14:44:27;3.78;;;1.60;;
40449;SDS011;41787;53.570;10.032;2022-09-12T14:46:55;6.10;;;2.00;;
40449;SDS011;41787;53.570;10.032;2022-09-12T14:49:33;6.05;;;1.60;;
40449;SDS011;41787;53.570;10.032;2022-09-12T14:52:05;4.22;;;1.30;;
40449;SDS011;41787;53.570;10.032;2022-09-12T14:59:35;5.43;;;1.52;;
40449;SDS011;41787;53.570;10.032;2022-09-12T15:13:01;2.92;;;1.40;;
40449;SDS011;41787;53.570;10.032;2022-09-12T15:15:28;2.92;;;1.55;;
40449;SDS011;41787;53.570;10.032;2022-09-12T15:17:55;2.17;;;1.55;;
40449;SDS011;41787;53.570;10.032;2022-09-12T15:20:21;3.95;;;1.38;;
40449;SDS011;41787;53.570;10.032;2022-09-12T15:22:48;1.88;;;1.27;;
40449;SDS011;41787;53.570;10.032;2022-09-12T15:25:14;6.63;;;1.48;;
40449;SDS011;41787;53.570;10.032;2022-09-12T15:27:40;4.45;;;1.40;;
40449;SDS011;41787;53.570;10.032;2022-09-12T15:30:09;3.97;;;1.20;;
40449;SDS011;41787;53.570;10.032;2022-09-12T15:32:37;3.22;;;1.55;;
40449;SDS011;41787;53.570;10.032;2022-09-12T15:35:04;3.90;;;1.15;;
40449;SDS011;41787;53.570;10.032;2022-09-12T15:37:31;1.88;;;1.25;;
40449;SDS011;41787;53.570;10.032;2022-09-12T15:39:57;4.50;;;1.50;;
40449;SDS011;41787;53.570;10.032;2022-09-12T15:42:24;18.58;;;1.92;;
40449;SDS011;41787;53.570;10.032;2022-09-12T15:44:52;3.67;;;1.65;;
40449;SDS011;41787;53.570;10.032;2022-09-12T15:47:18;2.22;;;1.35;;
40449;SDS011;41787;53.570;10.032;2022-09-12T15:49:44;3.70;;;1.23;;
40449;SDS011;41787;53.570;10.032;2022-09-12T15:52:12;2.17;;;1.48;;
40449;SDS011;41787;53.570;10.032;2022-09-12T15:54:39;3.40;;;1.33;;
40449;SDS011;41787;53.570;10.032;2022-09-12T15:57:05;5.28;;;1.55;;
40449;SDS011;41787;53.570;10.032;2022-09-12T15:59:30;4.38;;;1.90;;
40449;SDS011;41787;53.570;10.032;2022-09-12T16:01:56;4.43;;;1.67;;
40449;SDS011;41787;53.570;10.032;2022-09-12T16:04:23;5.65;;;1.80;;
40449;SDS011;41787;53.570;10.032;2022-09-12T16:06:50;7.25;;;1.88;;
40449;SDS011;41787;53.570;10.032;2022-09-12T16:09:16;4.20;;;1.75;;
40449;SDS011;41787;53.570;10.032;2022-09-12T16:11:42;7.35;;;1.73;;
40449;SDS011;41787;53.570;10.032;2022-09-12T16:14:15;9.30;;;1.80;;
40449;SDS011;41787;53.570;10.032;2022-09-12T16:16:41;7.13;;;2.20;;
40449;SDS011;41787;53.570;10.032;2022-09-12T16:19:08;3.15;;;1.67;;
40449;SDS011;41787;53.570;10.032;2022-09-12T16:21:34;3.45;;;1.58;;
40449;SDS011;41787;53.570;10.032;2022-09-12T16:24:00;4.22;;;2.00;;
40449;SDS011;41787;53.570;10.032;2022-09-12T16:26:26;2.35;;;1.90;;
40449;SDS011;41787;53.570;10.032;2022-09-12T16:28:55;2.72;;;2.30;;
40449;SDS011;41787;53.570;10.032;2022-09-12T16:31:21;3.88;;;1.98;;
40449;SDS011;41787;53.570;10.032;2022-09-12T16:33:47;4.60;;;1.92;;
40449;SDS011;41787;53.570;10.032;2022-09-12T16:36:14;3.90;;;2.30;;
40449;SDS011;41787;53.570;10.032;2022-09-12T16:38:41;2.53;;;1.65;;
40449;SDS011;41787;53.570;10.032;2022-09-12T16:41:07;2.50;;;2.05;;
40449;SDS011;41787;53.570;10.032;2022-09-12T16:43:33;2.17;;;1.85;;
40449;SDS011;41787;53.570;10.032;2022-09-12T16:46:02;3.35;;;1.98;;
40449;SDS011;41787;53.570;10.032;2022-09-12T16:48:28;2.00;;;1.73;;
40449;SDS011;41787;53.570;10.032;2022-09-12T16:50:57;3.40;;;1.80;;
40449;SDS011;41787;53.570;10.032;2022-09-12T16:53:25;3.78;;;1.70;;
40449;SDS011;41787;53.570;10.032;2022-09-12T16:55:51;5.68;;;2.22;;
40449;SDS011;41787;53.570;10.032;2022-09-12T16:58:17;2.63;;;2.03;;
40449;SDS011;41787;53.570;10.032;2022-09-12T17:00:43;2.65;;;1.92;;
40449;SDS011;41787;53.570;10.032;2022-09-12T17:03:09;5.00;;;2.08;;
40449;SDS011;41787;53.570;10.032;2022-09-12T17:05:35;4.25;;;2.35;;
40449;SDS011;41787;53.570;10.032;2022-09-12T17:08:01;2.95;;;1.98;;
40449;SDS011;41787;53.570;10.032;2022-09-12T17:10:27;4.32;;;2.03;;
40449;SDS011;41787;53.570;10.032;2022-09-12T17:12:54;4.15;;;2.10;;
40449;SDS011;41787;53.570;10.032;2022-09-12T17:15:21;3.35;;;2.33;;
40449;SDS011;41787;53.570;10.032;2022-09-12T17:17:47;3.13;;;2.15;;
40449;SDS011;41787;53.570;10.032;2022-09-12T17:20:16;2.97;;;2.00;;
40449;SDS011;41787;53.570;10.032;2022-09-12T17:22:42;3.70;;;2.38;;